createdAt,value
2017-07-09T00:00:55.544Z,12.43
2017-07-09T00:03:24.702Z,13.10
2017-07-09T00:05:53.089Z,12.07
2017-07-09T00:08:21.812Z,12.70
2017-07-09T00:10:50.229Z,12.43
2017-07-09T00:13:18.619Z,12.27
2017-07-09T00:15:47.032Z,9.83
2017-07-09T00:18:16.191Z,13.13
2017-07-09T00:20:44.582Z,10.80
2017-07-09T00:23:13.180Z,9.50
2017-07-09T00:25:41.550Z,10.37
2017-07-09T00:28:09.999Z,10.77
2017-07-09T00:30:38.468Z,13.47
2017-07-09T00:33:06.859Z,11.10
2017-07-09T00:35:35.260Z,11.63
2017-07-09T00:38:03.870Z,11.00
2017-07-09T00:40:33.041Z,13.27
2017-07-09T00:43:01.435Z,11.63
2017-07-09T00:45:30.037Z,11.90
2017-07-09T00:47:58.469Z,11.10
2017-07-09T00:50:26.868Z,11.13
2017-07-09T00:52:55.694Z,12.77
2017-07-09T00:55:24.066Z,11.33
2017-07-09T00:57:52.461Z,10.17
2017-07-09T01:00:20.969Z,13.40
2017-07-09T01:02:49.374Z,11.43
2017-07-09T01:05:18.544Z,11.67
2017-07-09T01:07:47.384Z,12.47
2017-07-09T01:10:15.789Z,11.83
2017-07-09T01:12:44.186Z,13.33
2017-07-09T01:15:12.596Z,10.80
2017-07-09T01:17:41.766Z,10.53
2017-07-09T01:20:10.158Z,12.80
2017-07-09T01:22:38.819Z,13.10
2017-07-09T01:25:07.422Z,11.60
2017-07-09T01:27:35.820Z,15.97
2017-07-09T01:30:05.082Z,12.40
2017-07-09T01:32:33.478Z,16.67
2017-07-09T01:35:01.892Z,14.23
2017-07-09T01:37:30.678Z,11.10
2017-07-09T01:39:59.075Z,11.23
2017-07-09T01:42:27.125Z,10.10
2017-07-09T01:44:56.229Z,10.60
2017-07-09T01:47:24.732Z,10.93
2017-07-09T01:49:53.126Z,10.47
2017-07-09T01:52:21.976Z,11.73
2017-07-09T01:54:50.381Z,11.00
2017-07-09T01:57:18.416Z,9.90
2017-07-09T01:59:47.010Z,11.03
2017-07-09T02:02:15.417Z,9.90
2017-07-09T02:04:43.808Z,9.47
2017-07-09T02:07:12.406Z,9.27
2017-07-09T02:09:40.796Z,9.47
2017-07-09T02:12:09.211Z,11.23
2017-07-09T02:14:37.664Z,10.43
2017-07-09T02:17:06.808Z,10.40
2017-07-09T02:19:35.209Z,9.80
2017-07-09T02:22:03.837Z,10.60
2017-07-09T02:24:32.976Z,9.33
2017-07-09T02:27:01.367Z,9.93
2017-07-09T02:29:29.923Z,10.03
2017-07-09T02:31:58.327Z,10.20
2017-07-09T02:34:26.701Z,9.40
2017-07-09T02:36:55.330Z,9.60
2017-07-09T02:39:23.735Z,10.10
2017-07-09T02:41:52.124Z,10.03
2017-07-09T02:44:20.761Z,8.03
2017-07-09T02:46:49.936Z,8.70
2017-07-09T02:49:18.320Z,9.83
2017-07-09T02:51:46.934Z,8.77
2017-07-09T02:54:15.347Z,8.80
2017-07-09T02:56:43.733Z,14.40
2017-07-09T02:59:12.332Z,8.80
2017-07-09T03:01:40.717Z,10.40
2017-07-09T03:04:09.096Z,7.57
2017-07-09T03:06:37.907Z,9.87
2017-07-09T03:09:06.310Z,8.10
2017-07-09T03:11:34.700Z,8.20
2017-07-09T03:14:03.368Z,10.97
2017-07-09T03:16:31.750Z,9.00
2017-07-09T03:19:00.139Z,8.60
2017-07-09T03:21:28.885Z,8.53
2017-07-09T03:23:58.026Z,7.30
2017-07-09T03:26:26.410Z,8.97
2017-07-09T03:28:55.224Z,10.40
2017-07-09T03:31:23.607Z,7.80
2017-07-09T03:33:52.785Z,9.57
2017-07-09T03:36:21.430Z,8.67
2017-07-09T03:38:49.829Z,10.53
2017-07-09T03:41:18.221Z,9.30
2017-07-09T03:43:46.769Z,13.30
2017-07-09T03:46:15.171Z,7.50
2017-07-09T03:48:43.548Z,8.00
2017-07-09T03:51:14.821Z,7.30
2017-07-09T03:53:43.227Z,8.07
2017-07-09T03:56:11.645Z,7.93
2017-07-09T03:58:40.050Z,10.70
2017-07-09T04:01:08.434Z,8.53
2017-07-09T04:03:37.083Z,8.20
2017-07-09T04:06:05.473Z,10.50
2017-07-09T04:08:33.847Z,8.50
2017-07-09T04:11:02.294Z,8.97
2017-07-09T04:13:30.799Z,7.63
2017-07-09T04:15:59.198Z,8.50
2017-07-09T04:18:27.631Z,9.37
2017-07-09T04:20:56.046Z,7.43
2017-07-09T04:23:24.433Z,9.40
2017-07-09T04:25:52.842Z,9.40
2017-07-09T04:28:22.018Z,8.80
2017-07-09T04:30:50.423Z,10.27
2017-07-09T04:33:19.936Z,8.33
2017-07-09T04:35:48.319Z,11.10
2017-07-09T04:38:16.720Z,7.50
2017-07-09T04:40:45.146Z,7.20
2017-07-09T04:43:13.537Z,10.40
2017-07-09T04:45:42.721Z,8.93
2017-07-09T04:48:11.133Z,9.37
2017-07-09T04:50:39.522Z,9.97
2017-07-09T04:53:08.249Z,8.20
2017-07-09T04:55:36.634Z,9.63
2017-07-09T04:58:05.026Z,11.03
2017-07-09T05:00:33.453Z,12.50
2017-07-09T05:03:01.843Z,7.80
2017-07-09T05:05:30.286Z,9.10
2017-07-09T05:07:59.437Z,10.13
2017-07-09T05:10:27.844Z,8.03
2017-07-09T05:12:58.986Z,8.50
2017-07-09T05:15:27.399Z,10.13
2017-07-09T05:17:56.054Z,9.30
2017-07-09T05:20:25.210Z,10.07
2017-07-09T05:22:53.612Z,9.10
2017-07-09T05:25:22.034Z,11.10
2017-07-09T05:27:50.438Z,9.03
2017-07-09T05:30:18.872Z,10.60
2017-07-09T05:32:47.305Z,10.87
2017-07-09T05:35:15.695Z,12.30
2017-07-09T05:37:44.113Z,10.93
2017-07-09T05:40:12.518Z,11.63
2017-07-09T05:42:41.022Z,11.70
2017-07-09T05:45:09.416Z,12.90
2017-07-09T05:47:37.812Z,11.57
2017-07-09T05:50:06.974Z,11.13
2017-07-09T05:52:35.364Z,10.30
2017-07-09T05:55:03.972Z,11.20
2017-07-09T05:57:32.390Z,10.20
2017-07-09T06:00:00.795Z,12.17
2017-07-09T06:02:29.243Z,12.47
2017-07-09T06:04:57.714Z,10.90
2017-07-09T06:07:26.232Z,11.53
2017-07-09T06:09:54.626Z,13.17
2017-07-09T06:12:23.015Z,12.20
2017-07-09T06:14:52.188Z,16.03
2017-07-09T06:17:20.599Z,17.00
2017-07-09T06:19:49.829Z,12.30
2017-07-09T06:22:18.244Z,15.80
2017-07-09T06:24:46.772Z,18.10
2017-07-09T06:27:15.174Z,12.60
2017-07-09T06:29:43.577Z,13.97
2017-07-09T06:32:11.988Z,15.33
2017-07-09T06:34:41.150Z,16.40
2017-07-09T06:37:09.878Z,14.10
2017-07-09T06:39:39.060Z,15.07
2017-07-09T06:42:07.448Z,15.37
2017-07-09T06:44:35.877Z,17.03
2017-07-09T06:47:04.287Z,16.17
2017-07-09T06:49:32.833Z,15.27
2017-07-09T06:52:01.246Z,17.70
2017-07-09T06:54:29.635Z,17.17
2017-07-09T06:56:58.819Z,17.17
2017-07-09T06:59:27.999Z,18.20
2017-07-09T07:01:56.733Z,19.77
2017-07-09T07:04:25.895Z,26.20
2017-07-09T07:06:54.297Z,22.30
2017-07-09T07:09:22.701Z,27.33
2017-07-09T07:11:51.100Z,28.37
2017-07-09T07:14:19.853Z,21.20
2017-07-09T07:16:48.231Z,29.47
2017-07-09T07:19:16.641Z,24.03
2017-07-09T07:21:45.049Z,36.07
2017-07-09T07:24:13.455Z,42.90
2017-07-09T07:26:42.277Z,47.13
2017-07-09T07:29:10.693Z,46.33
2017-07-09T07:31:39.086Z,47.37
2017-07-09T07:34:07.516Z,56.17
2017-07-09T07:36:35.954Z,44.40
2017-07-09T07:39:03.811Z,44.70
2017-07-09T07:41:33.064Z,44.43
2017-07-09T07:44:01.649Z,46.60
2017-07-09T07:46:30.068Z,43.53
2017-07-09T07:48:58.481Z,42.07
2017-07-09T07:51:27.354Z,43.93
2017-07-09T07:53:55.789Z,37.87
2017-07-09T07:56:24.194Z,44.70
2017-07-09T07:58:52.609Z,51.97
2017-07-09T08:01:21.002Z,50.40
2017-07-09T08:03:49.464Z,42.27
2017-07-09T08:06:17.895Z,43.60
2017-07-09T08:08:46.298Z,54.53
2017-07-09T08:11:14.763Z,48.27
2017-07-09T08:13:43.156Z,48.17
2017-07-09T08:16:12.627Z,43.83
2017-07-09T08:18:41.061Z,46.77
2017-07-09T08:21:09.479Z,48.37
2017-07-09T08:23:37.901Z,52.97
2017-07-09T08:26:06.328Z,46.63
2017-07-09T08:28:35.041Z,48.27
2017-07-09T08:31:03.427Z,36.17
2017-07-09T08:33:32.831Z,40.33
2017-07-09T08:36:01.377Z,48.37
2017-07-09T08:38:29.794Z,45.67
2017-07-09T08:40:58.211Z,41.60
2017-07-09T08:43:26.893Z,46.83
2017-07-09T08:45:55.298Z,45.70
2017-07-09T08:48:23.434Z,49.67
2017-07-09T08:50:52.124Z,43.87
2017-07-09T08:53:20.528Z,44.30
2017-07-09T08:55:48.921Z,53.97
2017-07-09T08:58:17.428Z,53.93
2017-07-09T09:00:45.826Z,49.07
2017-07-09T09:03:14.389Z,47.47
2017-07-09T09:05:42.994Z,54.63
2017-07-09T09:08:11.422Z,47.73
2017-07-09T09:10:40.829Z,50.37
2017-07-09T09:13:08.919Z,52.93
2017-07-09T09:15:37.311Z,48.67
2017-07-09T09:18:06.472Z,51.83
2017-07-09T09:20:35.110Z,49.57
2017-07-09T09:23:03.544Z,45.20
2017-07-09T09:25:31.975Z,43.87
2017-07-09T09:28:00.639Z,43.40
2017-07-09T09:30:29.049Z,44.93
2017-07-09T09:32:57.549Z,48.27
2017-07-09T09:35:25.866Z,44.40
2017-07-09T09:37:56.232Z,41.17
2017-07-09T09:40:24.694Z,43.07
2017-07-09T09:42:53.196Z,42.53
2017-07-09T09:45:21.638Z,43.90
2017-07-09T09:47:50.797Z,40.23
2017-07-09T09:50:19.422Z,45.70
2017-07-09T09:52:48.590Z,41.83
2017-07-09T09:55:16.974Z,44.13
2017-07-09T09:57:45.644Z,40.60
2017-07-09T10:00:14.043Z,40.33
2017-07-09T10:02:43.189Z,41.37
2017-07-09T10:05:11.714Z,39.73
2017-07-09T10:07:40.909Z,42.23
2017-07-09T10:10:10.081Z,46.73
2017-07-09T10:12:38.630Z,39.57
2017-07-09T10:15:07.057Z,37.57
2017-07-09T10:17:35.470Z,41.40
2017-07-09T10:20:04.047Z,42.10
2017-07-09T10:22:32.463Z,47.30
2017-07-09T10:25:00.862Z,34.93
2017-07-09T10:27:29.627Z,39.30
2017-07-09T10:29:58.024Z,34.73
2017-07-09T10:32:25.724Z,43.97
2017-07-09T10:34:54.323Z,35.13
2017-07-09T10:37:22.722Z,37.80
2017-07-09T10:39:51.114Z,40.70
2017-07-09T10:42:19.757Z,41.60
2017-07-09T10:44:48.168Z,38.77
2017-07-09T10:47:16.571Z,39.77
2017-07-09T10:49:45.193Z,35.90
2017-07-09T10:52:14.360Z,32.47
2017-07-09T10:54:42.749Z,35.10
2017-07-09T10:57:11.217Z,42.70
2017-07-09T10:59:39.637Z,34.57
2017-07-09T11:02:08.039Z,36.67
2017-07-09T11:04:36.906Z,30.70
2017-07-09T11:07:05.286Z,36.40
2017-07-09T11:09:33.712Z,33.43
2017-07-09T11:12:02.226Z,33.43
2017-07-09T11:14:31.405Z,32.20
2017-07-09T11:16:59.808Z,33.40
2017-07-09T11:19:28.225Z,37.93
2017-07-09T11:21:56.616Z,34.37
2017-07-09T11:24:25.021Z,34.60
2017-07-09T11:26:53.448Z,34.10
2017-07-09T11:29:21.857Z,38.93
2017-07-09T11:31:50.080Z,38.83
2017-07-09T11:34:19.113Z,42.10
2017-07-09T11:36:47.642Z,35.57
2017-07-09T11:42:08.065Z,29.97
2017-07-09T11:44:36.484Z,27.60
2017-07-09T11:47:04.889Z,29.20
2017-07-09T11:49:33.960Z,35.07
2017-07-09T11:52:02.380Z,29.70
2017-07-09T11:57:06.354Z,33.00
2017-07-09T11:59:34.764Z,31.23
2017-07-09T12:02:03.168Z,31.67
2017-07-09T12:04:32.569Z,31.20
2017-07-09T12:07:01.018Z,29.10
2017-07-09T12:09:29.569Z,31.43
2017-07-09T12:11:58.250Z,30.13
2017-07-09T12:14:26.735Z,31.33
2017-07-09T12:16:55.170Z,31.70
2017-07-09T12:19:24.583Z,32.80
2017-07-09T12:21:53.134Z,30.33
2017-07-09T12:24:22.327Z,30.20
2017-07-09T12:26:50.942Z,26.40
2017-07-09T12:29:19.359Z,27.30
2017-07-09T12:31:47.834Z,25.70
2017-07-09T12:34:16.539Z,24.03
2017-07-09T12:36:44.931Z,31.23
2017-07-09T12:39:13.350Z,32.00
2017-07-09T12:41:41.785Z,27.90
2017-07-09T12:44:10.184Z,29.10
2017-07-09T12:46:39.359Z,31.50
2017-07-09T12:49:07.971Z,24.57
2017-07-09T12:51:37.156Z,27.90
2017-07-09T12:54:05.547Z,27.40
2017-07-09T12:56:35.420Z,25.10
2017-07-09T12:59:03.813Z,24.77
2017-07-09T13:01:32.217Z,22.40
2017-07-09T13:04:01.609Z,25.30
2017-07-09T13:06:30.803Z,24.70
2017-07-09T13:08:59.211Z,21.10
2017-07-09T13:11:27.784Z,25.00
2017-07-09T13:13:56.170Z,22.83
2017-07-09T13:16:24.690Z,25.30
2017-07-09T13:18:53.298Z,18.03
2017-07-09T13:21:21.720Z,19.93
2017-07-09T13:23:50.111Z,18.63
2017-07-09T13:26:18.357Z,19.60
2017-07-09T13:28:46.868Z,19.10
2017-07-09T13:31:15.274Z,19.50
2017-07-09T13:33:43.989Z,21.50
2017-07-09T13:36:13.158Z,19.70
2017-07-09T13:38:41.607Z,21.50
2017-07-09T13:41:10.395Z,19.40
2017-07-09T13:43:38.791Z,18.70
2017-07-09T13:46:07.209Z,21.50
2017-07-09T13:48:36.541Z,16.23
2017-07-09T13:51:04.946Z,20.93
2017-07-09T13:53:33.346Z,18.20
2017-07-09T13:56:02.750Z,17.67
2017-07-09T13:58:31.150Z,20.90
2017-07-09T14:01:00.329Z,16.73
2017-07-09T14:03:29.717Z,19.90
2017-07-09T14:05:57.777Z,15.97
2017-07-09T14:08:26.188Z,15.73
2017-07-09T14:10:54.685Z,15.17
2017-07-09T14:13:23.075Z,15.37
2017-07-09T14:15:51.287Z,14.93
2017-07-09T14:18:19.826Z,16.53
2017-07-09T14:20:48.244Z,17.63
2017-07-09T14:23:16.680Z,16.87
2017-07-09T14:25:45.901Z,13.53
2017-07-09T14:28:14.297Z,14.70
2017-07-09T14:30:42.693Z,15.60
2017-07-09T14:33:11.404Z,14.40
2017-07-09T14:35:40.573Z,13.83
2017-07-09T14:38:09.065Z,13.30
2017-07-09T14:40:38.405Z,15.50
2017-07-09T14:43:06.802Z,13.80
2017-07-09T14:45:35.207Z,13.57
2017-07-09T14:48:03.858Z,13.27
2017-07-09T14:50:32.515Z,13.00
2017-07-09T14:53:01.673Z,14.30
2017-07-09T14:55:29.858Z,12.80
2017-07-09T14:57:58.262Z,13.00
2017-07-09T15:00:26.747Z,10.40
2017-07-09T15:02:55.213Z,11.70
2017-07-09T15:05:24.412Z,14.47
2017-07-09T15:07:52.873Z,11.80
2017-07-09T15:10:21.382Z,10.90
2017-07-09T15:12:50.541Z,11.10
2017-07-09T15:15:18.966Z,10.20
2017-07-09T15:17:47.508Z,13.03
2017-07-09T15:20:15.901Z,11.40
2017-07-09T15:22:44.286Z,11.73
2017-07-09T15:25:13.500Z,11.87
2017-07-09T15:27:41.918Z,12.33
2017-07-09T15:30:10.344Z,10.60
2017-07-09T15:32:39.613Z,11.63
2017-07-09T15:35:08.262Z,11.23
2017-07-09T15:37:36.696Z,11.57
2017-07-09T15:40:06.115Z,10.50
2017-07-09T15:42:34.505Z,9.23
2017-07-09T15:45:02.908Z,10.27
2017-07-09T15:47:31.415Z,11.03
2017-07-09T15:49:59.842Z,12.80
2017-07-09T15:52:28.500Z,10.00
2017-07-09T15:54:57.915Z,13.00
2017-07-09T15:57:26.325Z,9.47
2017-07-09T15:59:54.758Z,10.30
2017-07-09T16:02:24.137Z,8.43
2017-07-09T16:04:52.541Z,7.90
2017-07-09T16:07:20.962Z,7.90
2017-07-09T16:09:50.366Z,7.90
2017-07-09T16:12:18.776Z,11.43
2017-07-09T16:14:47.198Z,8.23
2017-07-09T16:17:15.643Z,6.43
2017-07-09T16:19:44.035Z,6.47
2017-07-09T16:22:13.199Z,7.10
2017-07-09T16:24:42.597Z,6.83
2017-07-09T16:27:11.015Z,5.87
2017-07-09T16:29:40.167Z,5.93
2017-07-09T16:32:08.786Z,8.50
2017-07-09T16:34:37.160Z,6.87
2017-07-09T16:37:05.545Z,10.63
2017-07-09T16:39:34.897Z,5.57
2017-07-09T16:42:03.314Z,8.87
2017-07-09T16:44:31.719Z,6.10
2017-07-09T16:47:00.289Z,5.73
2017-07-09T16:49:35.276Z,3.93
2017-07-09T16:52:03.740Z,4.07
2017-07-09T16:54:32.131Z,4.57
2017-07-09T16:57:00.520Z,4.50
2017-07-09T16:59:29.038Z,4.23
2017-07-09T17:01:57.432Z,3.43
2017-07-09T17:04:25.806Z,3.27
2017-07-09T17:06:54.382Z,3.83
2017-07-09T17:09:23.036Z,3.83
2017-07-09T17:11:51.428Z,3.83
2017-07-09T17:14:20.761Z,5.93
2017-07-09T17:16:49.474Z,3.03
2017-07-09T17:19:17.869Z,4.93
2017-07-09T17:21:46.500Z,4.30
2017-07-09T17:24:14.873Z,3.03
2017-07-09T17:26:43.259Z,3.80
2017-07-09T17:29:11.697Z,4.27
2017-07-09T17:31:40.434Z,10.47
2017-07-09T17:34:08.821Z,3.07
2017-07-09T17:36:37.327Z,5.87
2017-07-09T17:39:05.373Z,5.07
2017-07-09T17:41:33.765Z,3.50
2017-07-09T17:44:02.270Z,4.27
2017-07-09T17:46:30.649Z,3.70
2017-07-09T17:48:59.037Z,4.00
2017-07-09T17:51:28.405Z,3.17
2017-07-09T17:53:56.817Z,4.10
2017-07-09T17:56:25.993Z,2.40
2017-07-09T17:58:54.607Z,3.90
2017-07-09T18:01:23.761Z,8.13
2017-07-09T18:03:52.161Z,3.07
2017-07-09T18:06:21.530Z,2.33
2017-07-09T18:08:49.909Z,2.63
2017-07-09T18:11:18.297Z,4.47
2017-07-09T18:13:46.724Z,2.70
2017-07-09T18:16:15.133Z,3.10
2017-07-09T18:18:43.520Z,4.70
2017-07-09T18:21:12.062Z,4.57
2017-07-09T18:23:40.514Z,3.83
2017-07-09T18:26:08.900Z,3.70
2017-07-09T18:28:37.713Z,3.53
2017-07-09T18:31:06.102Z,7.00
2017-07-09T18:33:34.132Z,3.33
2017-07-09T18:36:02.729Z,3.47
2017-07-09T18:38:31.900Z,6.87
2017-07-09T18:41:01.202Z,4.60
2017-07-09T18:43:31.393Z,2.37
2017-07-09T18:45:59.797Z,2.20
2017-07-09T18:48:28.981Z,7.70
2017-07-09T18:50:57.515Z,3.80
2017-07-09T18:53:25.955Z,3.90
2017-07-09T18:55:54.390Z,2.87
2017-07-09T18:58:22.900Z,2.60
2017-07-09T19:00:51.322Z,2.80
2017-07-09T19:03:19.719Z,3.20
2017-07-09T19:05:48.130Z,5.77
2017-07-09T19:08:16.526Z,4.10
2017-07-09T19:10:44.923Z,2.90
2017-07-09T19:13:13.635Z,3.00
2017-07-09T19:15:42.032Z,2.30
2017-07-09T19:18:09.738Z,3.70
2017-07-09T19:20:39.051Z,3.13
2017-07-09T19:23:08.272Z,3.37
2017-07-09T19:25:36.698Z,3.10
2017-07-09T19:28:06.582Z,3.17
2017-07-09T19:30:35.052Z,3.30
2017-07-09T19:33:03.239Z,4.07
2017-07-09T19:35:33.626Z,3.20
2017-07-09T19:38:02.047Z,3.90
2017-07-09T19:40:30.119Z,7.17
2017-07-09T19:42:58.751Z,5.03
2017-07-09T19:45:27.165Z,9.50
2017-07-09T19:47:55.680Z,3.87
2017-07-09T19:50:24.544Z,4.73
2017-07-09T19:52:52.957Z,5.13
2017-07-09T19:55:22.125Z,3.10
2017-07-09T19:57:50.597Z,2.87
2017-07-09T20:00:19.009Z,5.60
2017-07-09T20:02:47.425Z,3.80
2017-07-09T20:05:16.238Z,4.00
2017-07-09T20:07:44.779Z,5.40
2017-07-09T20:10:13.027Z,3.70
2017-07-09T20:12:41.581Z,4.00
2017-07-09T20:15:09.978Z,2.97
2017-07-09T20:17:38.437Z,3.37
2017-07-09T20:20:06.873Z,4.27
2017-07-09T20:22:36.044Z,3.00
2017-07-09T20:25:04.450Z,4.90
2017-07-09T20:27:33.051Z,5.43
2017-07-09T20:30:01.510Z,3.27
2017-07-09T20:32:30.002Z,4.53
2017-07-09T20:34:58.696Z,4.60
2017-07-09T20:37:27.215Z,2.53
2017-07-09T20:39:55.683Z,6.27
2017-07-09T20:42:24.347Z,4.57
2017-07-09T20:44:52.788Z,4.90
2017-07-09T20:47:21.962Z,3.90
2017-07-09T20:49:50.707Z,3.83
2017-07-09T20:52:18.861Z,3.07
2017-07-09T20:54:47.267Z,4.33
2017-07-09T20:57:15.986Z,4.63
2017-07-09T20:59:44.373Z,3.53
2017-07-09T21:02:12.771Z,2.90
2017-07-09T21:04:42.170Z,4.13
2017-07-09T21:07:11.336Z,6.13
2017-07-09T21:09:39.718Z,4.33
2017-07-09T21:12:08.404Z,7.67
2017-07-09T21:14:36.796Z,3.90
2017-07-09T21:17:05.257Z,4.03
2017-07-09T21:19:33.885Z,5.03
2017-07-09T21:22:02.274Z,5.10
2017-07-09T21:24:30.659Z,4.57
2017-07-09T21:26:59.227Z,3.90
2017-07-09T21:29:27.606Z,3.47
2017-07-09T21:31:55.980Z,4.83
2017-07-09T21:34:24.695Z,6.20
2017-07-09T21:36:53.091Z,7.23
2017-07-09T21:39:21.478Z,4.97
2017-07-09T21:41:49.928Z,6.53
2017-07-09T21:44:18.312Z,7.93
2017-07-09T21:46:46.704Z,5.13
2017-07-09T21:49:15.300Z,4.90
2017-07-09T21:51:43.695Z,12.43
2017-07-09T21:54:12.955Z,5.97
2017-07-09T21:56:41.503Z,8.40
2017-07-09T21:59:09.907Z,4.70
2017-07-09T22:01:38.302Z,4.77
2017-07-09T22:04:06.969Z,7.50
2017-07-09T22:06:35.366Z,7.07
2017-07-09T22:09:02.868Z,4.27
2017-07-09T22:11:31.485Z,5.23
2017-07-09T22:13:59.869Z,8.40
2017-07-09T22:16:28.247Z,5.43
2017-07-09T22:18:56.888Z,6.63
2017-07-09T22:21:26.048Z,5.50
2017-07-09T22:23:54.421Z,7.37
2017-07-09T22:26:23.335Z,8.70
2017-07-09T22:28:51.729Z,5.27
2017-07-09T22:31:20.906Z,8.00
2017-07-09T22:33:49.448Z,5.30
2017-07-09T22:36:17.473Z,5.10
2017-07-09T22:38:46.650Z,4.43
2017-07-09T22:41:15.124Z,4.53
2017-07-09T22:43:43.527Z,6.30
2017-07-09T22:46:12.695Z,5.07
2017-07-09T22:48:41.319Z,4.30
2017-07-09T22:51:09.714Z,5.13
2017-07-09T22:53:38.107Z,6.37
2017-07-09T22:56:06.677Z,5.03
2017-07-09T22:58:35.062Z,5.57
2017-07-09T23:01:03.450Z,4.20
2017-07-09T23:03:31.965Z,4.90
2017-07-09T23:06:00.369Z,5.27
2017-07-09T23:08:29.534Z,4.60
2017-07-09T23:10:57.937Z,4.00
2017-07-09T23:13:27.076Z,4.50
2017-07-09T23:15:55.460Z,10.50
2017-07-09T23:18:23.865Z,12.13
2017-07-09T23:20:52.267Z,7.33
2017-07-09T23:23:21.428Z,5.03
2017-07-09T23:25:50.050Z,6.50
2017-07-09T23:28:19.202Z,8.80
2017-07-09T23:30:47.611Z,7.00
2017-07-09T23:33:16.040Z,11.20
2017-07-09T23:35:44.447Z,4.60
2017-07-09T23:38:12.592Z,5.37
2017-07-09T23:40:41.175Z,6.23
2017-07-09T23:43:09.566Z,4.20
2017-07-09T23:45:37.955Z,4.07
2017-07-09T23:48:06.682Z,5.33
2017-07-09T23:50:35.841Z,3.83
2017-07-09T23:53:03.910Z,5.67
2017-07-09T23:55:32.457Z,4.70
2017-07-09T23:58:00.838Z,4.10
